Time;durP1;ratioP1;P1;durP2;ratioP2;P2;SDS_P1;SDS_P2;PMS_P1;PMS_P2;Temp;Humidity;BMP_temperature;BMP_pressure;BME280_temperature;BME280_humidity;BME280_pressure;Samples;Min_cycle;Max_cycle;Signal;HPM_P1;HPM_P2
2023/09/03 00:02:14;;;;;;;1.63;1.40;;;19.40;99.90;;;;;;5020740;28;20203;-66
2023/09/03 00:04:42;;;;;;;1.92;1.38;;;19.40;99.90;;;;;;5029445;28;20252;-66
2023/09/03 00:07:09;;;;;;;2.15;1.20;;;19.40;99.90;;;;;;5029336;28;20191;-66
2023/09/03 00:09:36;;;;;;;2.13;1.30;;;19.40;99.90;;;;;;5027640;28;20524;-66
2023/09/03 00:12:05;;;;;;;2.47;1.20;;;19.30;99.90;;;;;;5027049;28;20248;-66
2023/09/03 00:14:32;;;;;;;1.40;1.30;;;19.30;99.90;;;;;;5011013;28;20297;-66
2023/09/03 00:16:59;;;;;;;2.10;1.25;;;19.30;99.90;;;;;;5028311;28;20252;-66
2023/09/03 00:19:26;;;;;;;1.05;1.05;;;19.30;99.90;;;;;;5029418;28;20277;-66
2023/09/03 00:21:54;;;;;;;1.17;1.05;;;19.30;99.90;;;;;;5012278;28;20658;-66
2023/09/03 00:24:21;;;;;;;1.55;1.20;;;19.30;99.90;;;;;;5029899;28;20272;-66
2023/09/03 00:26:49;;;;;;;1.20;1.10;;;19.30;99.90;;;;;;5029943;28;20261;-65
2023/09/03 00:29:16;;;;;;;1.33;1.20;;;19.30;99.90;;;;;;5027572;28;20211;-65
2023/09/03 00:31:43;;;;;;;2.17;1.30;;;19.30;99.90;;;;;;5029003;28;20190;-65
2023/09/03 00:34:10;;;;;;;3.22;1.30;;;19.30;99.90;;;;;;5028719;28;20221;-66
2023/09/03 00:36:37;;;;;;;1.30;1.00;;;19.30;99.90;;;;;;5011442;28;20197;-66
2023/09/03 00:39:06;;;;;;;1.40;1.30;;;19.30;99.90;;;;;;5012832;28;20258;-66
2023/09/03 00:41:33;;;;;;;1.77;1.20;;;19.30;99.90;;;;;;5029917;28;20194;-66
2023/09/03 00:44:00;;;;;;;2.20;1.20;;;19.20;99.90;;;;;;5022535;28;20245;-66
2023/09/03 00:46:27;;;;;;;1.30;1.13;;;19.20;99.90;;;;;;5027459;28;20195;-66
2023/09/03 00:48:54;;;;;;;2.45;1.30;;;19.20;99.90;;;;;;5028248;28;20666;-66
2023/09/03 00:51:24;;;;;;;1.92;1.50;;;19.20;99.90;;;;;;5012328;28;20198;-66
2023/09/03 00:53:54;;;;;;;1.45;1.25;;;19.20;99.90;;;;;;5011489;28;20207;-66
2023/09/03 00:56:23;;;;;;;1.30;1.20;;;19.10;99.90;;;;;;5030328;28;20308;-66
2023/09/03 00:58:50;;;;;;;1.23;1.13;;;19.10;99.90;;;;;;5028444;28;20198;-66
2023/09/03 01:01:19;;;;;;;1.33;1.25;;;19.10;99.90;;;;;;5008495;28;20207;-66
2023/09/03 01:03:47;;;;;;;1.27;1.17;;;19.10;99.90;;;;;;5027744;28;20657;-66
2023/09/03 01:06:15;;;;;;;2.10;1.30;;;19.10;99.90;;;;;;5029917;28;20225;-66
2023/09/03 01:08:42;;;;;;;1.23;1.08;;;19.10;99.90;;;;;;5029511;28;20222;-66
2023/09/03 01:11:28;;;;;;;1.08;1.00;;;19.10;99.90;;;;;;5029843;28;20239;-66
2023/09/03 01:14:04;;;;;;;1.20;1.20;;;19.10;99.90;;;;;;5026617;28;20313;-67
2023/09/03 01:16:36;;;;;;;1.10;1.10;;;19.10;99.90;;;;;;5028955;28;20293;-66
2023/09/03 01:19:19;;;;;;;1.38;1.25;;;19.10;99.90;;;;;;5011129;28;20203;-67
2023/09/03 01:21:58;;;;;;;1.10;1.10;;;19.10;99.90;;;;;;5028237;28;20205;-67
2023/09/03 01:24:41;;;;;;;1.00;1.00;;;19.10;99.90;;;;;;5011284;28;20194;-66
2023/09/03 01:27:22;;;;;;;1.13;1.13;;;19.10;99.90;;;;;;5029366;28;20676;-66
2023/09/03 01:29:52;;;;;;;1.00;1.00;;;19.10;99.90;;;;;;5023456;28;20214;-66
2023/09/03 01:32:21;;;;;;;1.35;1.25;;;19.10;99.90;;;;;;5028569;28;20194;-66
2023/09/03 01:34:49;;;;;;;0.88;0.88;;;19.00;99.90;;;;;;5029251;28;20565;-66
2023/09/03 01:37:16;;;;;;;0.93;0.93;;;19.00;99.90;;;;;;5027602;28;20616;-66
2023/09/03 01:39:44;;;;;;;0.82;0.82;;;19.00;99.90;;;;;;5028848;28;20187;-66
2023/09/03 01:42:10;;;;;;;0.93;0.93;;;18.90;99.90;;;;;;5029566;28;20226;-66
2023/09/03 01:44:38;;;;;;;1.38;1.20;;;18.90;99.90;;;;;;5019461;28;20585;-66
2023/09/03 01:47:22;;;;;;;0.95;0.90;;;18.90;99.90;;;;;;5027256;28;20199;-66
2023/09/03 01:49:56;;;;;;;1.30;1.00;;;18.90;99.90;;;;;;5028724;28;20264;-66
2023/09/03 01:52:32;;;;;;;0.90;0.90;;;18.90;99.90;;;;;;5012267;28;20206;-66
2023/09/03 01:55:02;;;;;;;0.85;0.85;;;18.90;99.90;;;;;;5032833;28;20284;-66
2023/09/03 01:57:33;;;;;;;1.63;1.08;;;18.90;99.90;;;;;;5033096;28;20202;-66
2023/09/03 02:00:05;;;;;;;1.00;0.95;;;18.90;99.90;;;;;;5014381;28;20674;-66
2023/09/03 02:02:44;;;;;;;1.20;1.13;;;18.90;99.90;;;;;;5030409;28;20202;-66
2023/09/03 02:05:13;;;;;;;1.50;1.20;;;18.90;99.90;;;;;;5015160;28;20197;-66
2023/09/03 02:07:40;;;;;;;1.13;1.10;;;18.80;99.90;;;;;;5032244;28;20704;-66
2023/09/03 02:10:08;;;;;;;1.70;1.45;;;18.80;99.90;;;;;;5031763;28;20214;-66
2023/09/03 02:12:35;;;;;;;1.52;1.00;;;18.80;99.90;;;;;;5014823;28;20213;-66
2023/09/03 02:15:02;;;;;;;2.28;0.95;;;18.80;99.90;;;;;;5031561;28;20217;-66
2023/09/03 02:17:30;;;;;;;1.13;0.98;;;18.80;99.90;;;;;;5026053;28;20213;-66
2023/09/03 02:19:58;;;;;;;1.10;1.10;;;18.70;99.90;;;;;;5032070;28;20665;-66
2023/09/03 02:22:25;;;;;;;1.13;1.08;;;18.70;99.90;;;;;;5015551;28;20596;-66
2023/09/03 02:24:52;;;;;;;1.10;1.00;;;18.70;99.90;;;;;;5025430;28;20226;-66
2023/09/03 02:27:19;;;;;;;0.77;0.77;;;18.70;99.90;;;;;;5014992;28;20682;-66
2023/09/03 02:29:47;;;;;;;1.15;1.00;;;18.70;99.90;;;;;;5012949;28;20215;-66
2023/09/03 02:32:14;;;;;;;0.90;0.90;;;18.70;99.90;;;;;;5031460;28;20207;-66
2023/09/03 02:34:41;;;;;;;3.17;1.13;;;18.70;99.90;;;;;;5030830;28;20199;-66
2023/09/03 02:37:10;;;;;;;0.90;0.90;;;18.70;99.90;;;;;;5021028;28;20186;-66
2023/09/03 02:39:37;;;;;;;0.80;0.80;;;18.70;99.90;;;;;;5031134;28;20186;-66
2023/09/03 02:42:05;;;;;;;1.27;1.10;;;18.70;99.90;;;;;;5023005;28;20245;-66
2023/09/03 02:44:33;;;;;;;1.60;0.90;;;18.70;99.90;;;;;;5028310;28;20599;-66
2023/09/03 02:47:00;;;;;;;1.48;1.00;;;18.70;99.90;;;;;;5031080;28;20191;-66
2023/09/03 02:49:27;;;;;;;1.10;1.10;;;18.60;99.90;;;;;;5024972;28;20602;-66
2023/09/03 02:51:54;;;;;;;1.38;0.90;;;18.60;99.90;;;;;;5013936;28;20203;-66
2023/09/03 02:54:23;;;;;;;1.33;1.23;;;18.60;99.90;;;;;;5031920;28;20203;-66
2023/09/03 02:56:50;;;;;;;1.15;1.05;;;18.50;99.90;;;;;;5032229;28;20194;-66
2023/09/03 02:59:17;;;;;;;1.08;0.90;;;18.50;99.90;;;;;;5010730;28;20206;-66
2023/09/03 03:01:44;;;;;;;1.45;1.00;;;18.50;99.90;;;;;;5029340;28;20240;-66
2023/09/03 03:04:12;;;;;;;0.95;0.93;;;18.50;99.90;;;;;;5013210;28;20210;-66
2023/09/03 03:06:39;;;;;;;1.23;1.13;;;18.40;99.90;;;;;;5031653;28;20198;-66
2023/09/03 03:09:06;;;;;;;1.08;0.98;;;18.40;99.90;;;;;;5031600;28;20226;-66
2023/09/03 03:11:35;;;;;;;1.45;1.15;;;18.30;99.90;;;;;;5013804;28;20235;-66
2023/09/03 03:14:03;;;;;;;1.17;1.08;;;18.30;99.90;;;;;;5012943;28;20206;-66
2023/09/03 03:16:33;;;;;;;0.95;0.95;;;18.30;99.90;;;;;;5010954;28;20649;-66
2023/09/03 03:19:05;;;;;;;1.00;1.00;;;18.30;99.90;;;;;;5012115;28;20570;-66
2023/09/03 03:21:34;;;;;;;1.40;1.00;;;18.30;99.90;;;;;;5012772;28;20282;-66
2023/09/03 03:24:04;;;;;;;0.85;0.85;;;18.30;99.90;;;;;;5012964;28;20280;-66
2023/09/03 03:26:35;;;;;;;1.70;1.00;;;18.30;99.90;;;;;;5013837;28;20203;-66
2023/09/03 03:29:07;;;;;;;1.20;0.80;;;18.30;99.90;;;;;;5028637;28;20202;-66
2023/09/03 03:31:37;;;;;;;0.75;0.70;;;18.30;99.90;;;;;;5026492;28;20313;-66
2023/09/03 03:34:05;;;;;;;1.10;1.00;;;18.40;99.90;;;;;;5020521;28;20207;-66
2023/09/03 03:36:32;;;;;;;0.90;0.90;;;18.30;99.90;;;;;;5011908;28;20234;-66
2023/09/03 03:38:59;;;;;;;0.80;0.80;;;18.30;99.90;;;;;;5030031;28;20206;-66
2023/09/03 03:41:27;;;;;;;1.02;1.00;;;18.30;99.90;;;;;;5030827;28;20211;-66
2023/09/03 03:43:57;;;;;;;0.77;0.73;;;18.40;99.90;;;;;;5011443;28;20198;-66
2023/09/03 03:46:27;;;;;;;1.08;1.00;;;18.40;99.90;;;;;;5013202;28;20360;-66
2023/09/03 03:48:57;;;;;;;1.00;1.00;;;18.30;99.90;;;;;;5009252;28;20686;-64
2023/09/03 03:51:24;;;;;;;1.38;1.08;;;18.30;99.90;;;;;;5030906;28;20234;-66
2023/09/03 03:53:51;;;;;;;1.10;1.10;;;18.30;99.90;;;;;;5030328;28;20222;-66
2023/09/03 03:56:19;;;;;;;1.00;1.00;;;18.30;99.90;;;;;;5030782;28;20610;-65
2023/09/03 03:58:47;;;;;;;0.80;0.80;;;18.20;99.90;;;;;;5009831;28;20215;-66
2023/09/03 04:01:17;;;;;;;1.00;1.00;;;18.20;99.90;;;;;;5010352;28;20227;-66
2023/09/03 04:03:45;;;;;;;1.00;1.00;;;18.20;99.90;;;;;;5011387;28;20206;-66
2023/09/03 04:06:13;;;;;;;1.10;1.10;;;18.20;99.90;;;;;;5012347;28;20260;-65
2023/09/03 04:08:43;;;;;;;1.10;1.10;;;18.20;99.90;;;;;;5030189;28;20308;-66
2023/09/03 04:11:11;;;;;;;1.27;0.95;;;18.10;99.90;;;;;;5027975;28;20230;-66
2023/09/03 04:13:39;;;;;;;1.15;1.08;;;18.10;99.90;;;;;;5028826;28;20194;-65
2023/09/03 04:16:08;;;;;;;0.98;0.98;;;18.10;99.90;;;;;;5022100;28;20593;-65
2023/09/03 04:18:36;;;;;;;0.80;0.80;;;18.10;99.90;;;;;;5029285;28;20210;-65
2023/09/03 04:21:04;;;;;;;0.93;0.93;;;18.10;99.90;;;;;;5011945;28;20202;-65
2023/09/03 04:23:32;;;;;;;0.88;0.88;;;18.00;99.90;;;;;;5013602;28;20562;-65
2023/09/03 04:26:01;;;;;;;1.02;1.02;;;18.10;99.90;;;;;;5009022;28;20206;-66
2023/09/03 04:28:31;;;;;;;1.67;1.15;;;18.10;99.90;;;;;;5002414;28;20290;-65
2023/09/03 04:31:00;;;;;;;1.38;1.00;;;18.10;99.90;;;;;;5029032;28;20202;-65
2023/09/03 04:33:30;;;;;;;1.10;1.00;;;18.20;99.90;;;;;;5007773;28;20350;-66
2023/09/03 04:36:02;;;;;;;0.80;0.80;;;18.10;99.90;;;;;;5009173;28;20217;-66
2023/09/03 04:38:31;;;;;;;1.00;1.00;;;18.10;99.90;;;;;;5014597;28;20543;-66
2023/09/03 04:41:04;;;;;;;1.00;0.88;;;18.20;99.90;;;;;;5014741;28;20277;-65
2023/09/03 04:43:32;;;;;;;1.20;1.10;;;18.20;99.90;;;;;;5010581;28;20230;-66
2023/09/03 04:45:59;;;;;;;0.75;0.75;;;18.20;99.90;;;;;;5011201;28;20234;-66
2023/09/03 04:48:27;;;;;;;0.95;0.90;;;18.20;99.90;;;;;;5011441;28;20670;-65
2023/09/03 04:50:54;;;;;;;0.90;0.90;;;18.20;99.90;;;;;;5026330;28;20222;-66
2023/09/03 04:53:24;;;;;;;0.80;0.80;;;18.20;99.90;;;;;;5029825;28;20283;-66
2023/09/03 04:55:51;;;;;;;1.05;0.95;;;18.20;99.90;;;;;;5029913;28;20266;-66
2023/09/03 04:58:18;;;;;;;0.82;0.82;;;18.20;99.90;;;;;;5026202;28;20789;-66
2023/09/03 05:00:45;;;;;;;0.93;0.93;;;18.20;99.90;;;;;;5029641;28;20194;-66
2023/09/03 05:03:12;;;;;;;0.90;0.90;;;18.20;99.90;;;;;;5010503;28;20697;-66
2023/09/03 05:05:41;;;;;;;1.17;1.00;;;18.20;99.90;;;;;;5029557;28;20187;-66
2023/09/03 05:08:09;;;;;;;1.05;1.00;;;18.20;99.90;;;;;;5016416;28;20199;-66
2023/09/03 05:10:39;;;;;;;0.90;0.90;;;18.20;99.90;;;;;;5019852;28;20264;-66
2023/09/03 05:13:06;;;;;;;1.20;1.10;;;18.30;99.90;;;;;;5023238;28;20195;-66
2023/09/03 05:15:34;;;;;;;0.75;0.70;;;18.30;99.90;;;;;;5020793;28;20222;-66
2023/09/03 05:18:01;;;;;;;1.65;1.13;;;18.30;99.90;;;;;;5026781;28;20293;-66
2023/09/03 05:20:30;;;;;;;0.75;0.75;;;18.40;99.90;;;;;;5020379;28;20206;-66
2023/09/03 05:22:57;;;;;;;0.80;0.80;;;18.40;99.90;;;;;;5028441;28;20344;-66
2023/09/03 05:25:24;;;;;;;1.50;0.95;;;18.40;99.90;;;;;;5029945;28;20190;-66
2023/09/03 05:27:52;;;;;;;1.23;1.13;;;18.40;99.90;;;;;;5012683;28;20967;-67
2023/09/03 05:30:19;;;;;;;0.93;0.93;;;18.40;99.90;;;;;;5009845;28;20720;-65
2023/09/03 05:32:47;;;;;;;0.98;0.98;;;18.50;99.90;;;;;;5017218;28;20294;-65
2023/09/03 05:35:14;;;;;;;1.02;1.00;;;18.50;99.90;;;;;;5014290;28;20199;-66
2023/09/03 05:37:41;;;;;;;1.17;1.08;;;18.50;99.90;;;;;;5031968;28;20203;-65
2023/09/03 05:40:10;;;;;;;1.30;1.00;;;18.50;99.90;;;;;;5030556;28;20196;-66
2023/09/03 05:42:38;;;;;;;0.80;0.80;;;18.50;99.90;;;;;;5017340;28;20693;-65
2023/09/03 05:45:07;;;;;;;0.90;0.90;;;18.50;99.90;;;;;;5014312;28;20218;-66
2023/09/03 05:47:34;;;;;;;0.98;0.98;;;18.50;99.90;;;;;;5026828;28;20532;-66
2023/09/03 05:50:06;;;;;;;0.98;0.80;;;18.50;99.90;;;;;;5030715;28;20297;-66
2023/09/03 05:52:33;;;;;;;0.98;0.98;;;18.60;99.90;;;;;;5024140;28;20235;-66
2023/09/03 05:55:00;;;;;;;1.00;1.00;;;18.60;99.90;;;;;;5032618;28;20202;-66
2023/09/03 05:57:27;;;;;;;0.73;0.73;;;18.70;99.90;;;;;;5012243;28;20302;-66
2023/09/03 05:59:55;;;;;;;1.30;1.20;;;18.70;99.90;;;;;;5018515;28;20182;-66
2023/09/03 06:02:25;;;;;;;0.70;0.70;;;18.80;99.90;;;;;;5031114;28;20268;-66
2023/09/03 06:04:52;;;;;;;1.33;1.13;;;18.80;99.90;;;;;;5030945;28;20214;-66
2023/09/03 06:07:19;;;;;;;1.00;0.90;;;18.80;99.90;;;;;;5031074;28;20625;-65
2023/09/03 06:09:46;;;;;;;1.00;1.00;;;18.90;99.90;;;;;;5030259;28;20229;-66
2023/09/03 06:12:13;;;;;;;1.10;1.10;;;18.90;99.90;;;;;;5032067;28;20306;-66
2023/09/03 06:14:40;;;;;;;1.02;0.93;;;19.10;99.90;;;;;;5014214;28;20298;-66
2023/09/03 06:17:07;;;;;;;1.90;1.08;;;19.10;99.90;;;;;;5018934;28;20203;-66
2023/09/03 06:19:35;;;;;;;1.23;0.95;;;19.20;99.90;;;;;;5031669;28;20201;-66
2023/09/03 06:22:02;;;;;;;1.05;0.82;;;19.30;99.90;;;;;;5024538;28;20617;-67
2023/09/03 06:24:29;;;;;;;1.00;1.00;;;19.30;99.90;;;;;;5032123;28;20222;-66
2023/09/03 06:26:56;;;;;;;1.52;0.98;;;19.30;99.90;;;;;;5030212;28;20229;-67
2023/09/03 06:29:23;;;;;;;1.33;1.23;;;19.40;99.90;;;;;;5014041;28;20199;-67
2023/09/03 06:31:50;;;;;;;0.70;0.70;;;19.40;99.90;;;;;;5032187;28;20280;-66
2023/09/03 06:34:18;;;;;;;0.90;0.90;;;19.40;99.90;;;;;;5031958;28;20201;-66
2023/09/03 06:36:46;;;;;;;0.90;0.90;;;19.50;99.90;;;;;;5032283;28;20510;-66
2023/09/03 06:39:13;;;;;;;1.02;0.82;;;19.50;99.90;;;;;;5031743;28;20654;-66
2023/09/03 06:41:40;;;;;;;1.15;0.82;;;19.50;99.90;;;;;;5023851;28;20294;-66
2023/09/03 06:44:07;;;;;;;0.88;0.88;;;19.60;99.90;;;;;;5012818;28;20603;-66
2023/09/03 06:46:34;;;;;;;1.02;0.77;;;19.60;99.90;;;;;;5032159;28;20261;-66
2023/09/03 06:49:01;;;;;;;0.90;0.90;;;19.70;99.90;;;;;;5030599;28;20647;-67
2023/09/03 06:51:28;;;;;;;2.08;1.33;;;19.80;99.90;;;;;;5025958;28;20215;-66
2023/09/03 06:53:57;;;;;;;1.35;1.02;;;19.90;99.90;;;;;;5027247;28;20724;-66
2023/09/03 06:56:24;;;;;;;1.35;1.20;;;19.90;99.90;;;;;;5032617;28;20341;-66
2023/09/03 06:58:51;;;;;;;0.93;0.93;;;20.00;99.90;;;;;;5029316;28;20202;-67
2023/09/03 07:01:19;;;;;;;1.02;1.02;;;20.00;99.90;;;;;;5014150;28;20317;-66
2023/09/03 07:03:46;;;;;;;1.88;0.90;;;20.00;99.90;;;;;;5031318;28;20194;-67
2023/09/03 07:06:13;;;;;;;0.70;0.70;;;20.10;99.90;;;;;;5029907;28;20193;-66
2023/09/03 07:08:40;;;;;;;1.00;1.00;;;20.10;99.90;;;;;;5031322;28;20548;-66
2023/09/03 07:11:08;;;;;;;1.00;1.00;;;20.10;99.90;;;;;;5031821;28;20321;-66
2023/09/03 07:13:35;;;;;;;1.30;1.20;;;20.10;99.90;;;;;;5030710;28;20603;-66
2023/09/03 07:16:04;;;;;;;2.25;1.30;;;20.10;99.90;;;;;;5024133;28;20281;-66
2023/09/03 07:18:31;;;;;;;1.00;1.00;;;20.10;99.90;;;;;;5029361;28;20662;-67
2023/09/03 07:21:04;;;;;;;1.40;1.30;;;20.10;99.90;;;;;;5030720;28;20202;-66
2023/09/03 07:23:32;;;;;;;1.20;1.10;;;20.10;99.90;;;;;;5018432;28;20218;-66
2023/09/03 07:26:02;;;;;;;1.23;1.13;;;20.10;99.90;;;;;;5031753;28;20273;-66
2023/09/03 07:28:31;;;;;;;1.20;1.20;;;20.10;99.90;;;;;;5025930;28;20199;-66
2023/09/03 07:30:58;;;;;;;1.85;1.20;;;20.10;99.90;;;;;;5028661;28;20717;-67
2023/09/03 07:33:26;;;;;;;1.00;1.00;;;20.20;99.90;;;;;;5031020;28;20236;-66
2023/09/03 07:35:53;;;;;;;1.20;1.10;;;20.30;99.90;;;;;;5029772;28;20209;-67
2023/09/03 07:38:21;;;;;;;1.08;1.00;;;20.40;99.90;;;;;;5030951;28;20194;-66
2023/09/03 07:40:48;;;;;;;1.20;1.10;;;20.50;99.90;;;;;;5024310;28;20207;-67
2023/09/03 07:43:15;;;;;;;1.30;1.20;;;20.60;99.90;;;;;;5030476;28;20197;-67
2023/09/03 07:45:43;;;;;;;1.42;1.10;;;20.60;99.90;;;;;;5031114;28;20206;-67
2023/09/03 07:48:11;;;;;;;1.10;1.10;;;20.70;99.90;;;;;;5029993;28;20550;-67
2023/09/03 07:50:39;;;;;;;1.70;1.30;;;20.70;99.90;;;;;;5024328;28;20203;-67
2023/09/03 07:53:06;;;;;;;0.75;0.75;;;20.70;99.90;;;;;;5005913;28;20218;-67
2023/09/03 07:55:33;;;;;;;1.48;1.27;;;20.70;99.90;;;;;;5017994;28;20458;-67
2023/09/03 07:58:00;;;;;;;1.10;0.93;;;20.70;99.90;;;;;;5021985;28;20224;-67
2023/09/03 08:00:28;;;;;;;1.10;1.10;;;20.70;99.90;;;;;;5030476;28;20205;-67
2023/09/03 08:02:57;;;;;;;0.80;0.80;;;20.60;99.90;;;;;;5029532;28;20186;-67
2023/09/03 08:05:24;;;;;;;0.90;0.90;;;20.60;99.90;;;;;;5018297;28;20193;-67
2023/09/03 08:07:51;;;;;;;0.90;0.90;;;20.60;99.90;;;;;;5029549;28;20217;-67
2023/09/03 08:10:18;;;;;;;1.60;1.10;;;20.60;99.90;;;;;;5030164;28;20264;-66
2023/09/03 08:12:45;;;;;;;1.27;1.17;;;20.70;99.90;;;;;;5023342;28;20218;-67
2023/09/03 08:15:13;;;;;;;1.20;1.10;;;20.70;99.90;;;;;;5023868;28;20260;-66
2023/09/03 08:17:41;;;;;;;1.27;1.13;;;20.80;99.90;;;;;;5019196;28;20213;-66
2023/09/03 08:20:12;;;;;;;1.27;1.17;;;20.90;99.90;;;;;;5013355;28;20207;-66
2023/09/03 08:22:39;;;;;;;2.63;1.30;;;20.90;99.90;;;;;;5022797;28;20186;-67
2023/09/03 08:25:07;;;;;;;1.40;1.30;;;21.00;99.90;;;;;;5030416;28;20264;-67
2023/09/03 08:27:34;;;;;;;1.15;1.08;;;21.00;99.90;;;;;;5030180;28;20202;-66
2023/09/03 08:30:02;;;;;;;1.95;1.25;;;21.10;99.90;;;;;;5029948;28;20639;-67
2023/09/03 08:32:30;;;;;;;1.00;1.00;;;21.20;99.90;;;;;;5029701;28;20210;-67
2023/09/03 08:34:57;;;;;;;1.63;1.05;;;21.20;99.90;;;;;;5030031;28;20202;-67
2023/09/03 08:37:26;;;;;;;1.20;1.10;;;21.20;99.90;;;;;;5019648;28;20218;-67
2023/09/03 08:39:53;;;;;;;1.50;1.40;;;21.20;99.90;;;;;;5026417;28;20225;-68
2023/09/03 08:42:22;;;;;;;1.65;1.10;;;21.10;99.90;;;;;;5030254;28;20662;-67
2023/09/03 08:44:52;;;;;;;1.65;1.02;;;21.20;99.90;;;;;;5028613;28;20306;-67
2023/09/03 08:47:20;;;;;;;1.20;1.10;;;21.20;99.90;;;;;;5029445;28;20508;-68
2023/09/03 08:49:47;;;;;;;1.27;1.20;;;21.30;99.90;;;;;;5028659;28;20210;-67
2023/09/03 08:52:16;;;;;;;1.20;1.10;;;21.40;99.90;;;;;;5011565;28;20765;-67
2023/09/03 08:54:46;;;;;;;1.02;1.02;;;21.50;99.90;;;;;;5029397;28;20262;-67
2023/09/03 08:57:13;;;;;;;0.88;0.80;;;21.50;99.90;;;;;;5028530;28;20193;-67
2023/09/03 08:59:40;;;;;;;1.30;1.20;;;21.60;99.90;;;;;;5028098;28;20217;-65
2023/09/03 09:02:15;;;;;;;1.40;1.30;;;21.60;99.90;;;;;;5034032;28;20252;-68
2023/09/03 09:04:43;;;;;;;1.00;1.00;;;21.70;99.90;;;;;;5034294;28;20206;-66
2023/09/03 09:07:10;;;;;;;1.35;1.25;;;21.80;99.90;;;;;;5021470;28;20199;-66
2023/09/03 09:09:38;;;;;;;1.10;1.10;;;21.80;99.90;;;;;;5029526;28;20612;-66
2023/09/03 09:12:18;;;;;;;1.13;1.13;;;21.90;99.90;;;;;;5030104;28;20218;-66
2023/09/03 09:15:07;;;;;;;1.15;0.90;;;22.00;99.90;;;;;;5027877;28;20265;-66
2023/09/03 09:17:38;;;;;;;1.20;1.10;;;22.00;99.90;;;;;;5027225;28;20285;-68
2023/09/03 09:20:06;;;;;;;1.25;1.20;;;22.10;99.90;;;;;;5026771;28;20182;-67
2023/09/03 09:22:39;;;;;;;1.30;1.20;;;22.20;99.90;;;;;;5024831;28;20190;-67
2023/09/03 09:25:07;;;;;;;1.23;1.13;;;22.30;99.90;;;;;;5030006;28;20195;-67
2023/09/03 09:27:38;;;;;;;1.27;1.13;;;22.40;99.90;;;;;;5029662;28;20194;-67
2023/09/03 09:30:13;;;;;;;3.42;1.35;;;22.50;99.90;;;;;;5027413;28;20642;-67
2023/09/03 09:32:41;;;;;;;1.60;1.25;;;22.60;99.90;;;;;;5022880;28;20632;-67
2023/09/03 09:35:09;;;;;;;1.38;1.25;;;22.60;99.90;;;;;;5029387;28;20197;-69
2023/09/03 09:37:40;;;;;;;1.73;1.08;;;22.80;99.90;;;;;;5027986;28;20329;-69
2023/09/03 09:40:08;;;;;;;1.00;1.00;;;22.80;99.90;;;;;;5028914;28;20206;-69
2023/09/03 09:42:51;;;;;;;1.65;1.20;;;22.80;99.90;;;;;;5031423;28;20368;-69
2023/09/03 09:45:20;;;;;;;1.02;0.93;;;22.80;99.90;;;;;;5030546;28;20562;-70
2023/09/03 09:47:49;;;;;;;1.05;1.05;;;22.70;99.90;;;;;;5030678;28;20206;-69
2023/09/03 09:50:32;;;;;;;1.77;1.40;;;22.80;99.90;;;;;;5029923;28;20273;-70
2023/09/03 09:52:59;;;;;;;1.40;1.20;;;22.80;99.90;;;;;;5014705;28;20214;-70
2023/09/03 09:55:27;;;;;;;1.30;1.17;;;22.90;99.90;;;;;;5013085;28;20649;-71
2023/09/03 09:57:56;;;;;;;1.08;1.08;;;22.90;99.90;;;;;;5031609;28;20206;-69
2023/09/03 10:00:33;;;;;;;1.77;1.00;;;23.00;99.90;;;;;;5032866;28;20226;-69
2023/09/03 10:03:01;;;;;;;1.25;1.10;;;22.90;99.90;;;;;;5031684;28;20213;-70
2023/09/03 10:05:28;;;;;;;0.90;0.90;;;22.90;99.90;;;;;;5027861;28;20306;-69
2023/09/03 10:07:55;;;;;;;1.95;1.27;;;22.80;99.90;;;;;;5031938;28;20226;-69
2023/09/03 10:10:22;;;;;;;2.45;1.45;;;22.70;99.90;;;;;;5027904;28;20575;-70
2023/09/03 10:12:49;;;;;;;1.38;1.27;;;22.60;99.90;;;;;;5029156;28;20206;-69
2023/09/03 10:15:19;;;;;;;0.98;0.90;;;22.60;99.90;;;;;;5032603;28;20769;-70
2023/09/03 10:17:51;;;;;;;1.55;1.10;;;22.60;99.90;;;;;;5025959;28;20199;-70
2023/09/03 10:20:21;;;;;;;1.38;1.27;;;22.60;99.90;;;;;;5032620;28;20194;-70
2023/09/03 10:22:51;;;;;;;1.25;1.02;;;22.60;99.90;;;;;;5031649;28;20566;-70
2023/09/03 10:25:24;;;;;;;1.30;1.20;;;22.60;99.90;;;;;;5032662;28;20218;-70
2023/09/03 10:27:56;;;;;;;1.30;1.05;;;22.70;99.90;;;;;;5013187;28;20297;-70
2023/09/03 10:30:30;;;;;;;1.58;1.00;;;22.80;99.90;;;;;;5032261;28;20274;-70
2023/09/03 10:32:58;;;;;;;1.40;0.82;;;22.90;99.90;;;;;;5029283;28;20268;-70
2023/09/03 10:35:25;;;;;;;0.90;0.90;;;23.10;99.90;;;;;;5031181;28;20593;-70
2023/09/03 10:37:52;;;;;;;1.25;1.15;;;23.20;99.90;;;;;;5014641;28;20222;-70
2023/09/03 10:40:20;;;;;;;1.98;1.00;;;23.30;99.20;;;;;;5032141;28;20201;-71
2023/09/03 10:42:48;;;;;;;0.90;0.90;;;23.30;99.00;;;;;;5029853;28;20662;-70
2023/09/03 10:45:15;;;;;;;1.02;1.02;;;23.40;99.00;;;;;;5014229;28;20202;-71
2023/09/03 10:48:05;;;;;;;1.42;1.20;;;23.40;98.80;;;;;;5030901;28;20206;-70
2023/09/03 10:50:42;;;;;;;1.00;1.00;;;23.40;98.70;;;;;;5030986;28;20206;-70
2023/09/03 10:53:09;;;;;;;1.10;1.00;;;23.40;98.50;;;;;;5028093;28;20211;-70
2023/09/03 10:55:36;;;;;;;1.55;1.20;;;23.30;97.60;;;;;;5028422;28;20557;-71
2023/09/03 10:58:30;;;;;;;1.25;0.98;;;23.40;97.80;;;;;;5026913;28;20260;-70
2023/09/03 11:01:20;;;;;;;1.80;1.20;;;23.40;97.70;;;;;;5025617;28;20336;-70
2023/09/03 11:03:49;;;;;;;1.88;0.90;;;23.50;97.60;;;;;;5017312;28;20192;-70
2023/09/03 11:06:18;;;;;;;1.90;1.05;;;23.50;96.90;;;;;;5031424;28;20199;-70
2023/09/03 11:08:46;;;;;;;1.33;0.90;;;23.50;97.00;;;;;;5020556;28;20290;-70
2023/09/03 11:11:19;;;;;;;0.98;0.98;;;23.60;97.00;;;;;;5030865;28;20771;-70
2023/09/03 11:13:51;;;;;;;1.02;0.90;;;23.60;96.80;;;;;;5030234;28;20269;-70
2023/09/03 11:16:19;;;;;;;1.50;1.08;;;23.60;96.60;;;;;;5026419;28;20219;-70
2023/09/03 11:18:50;;;;;;;2.25;1.00;;;23.70;96.30;;;;;;5027678;28;20530;-70
2023/09/03 11:21:17;;;;;;;0.77;0.77;;;23.60;96.20;;;;;;5023061;28;20648;-70
2023/09/03 11:24:02;;;;;;;1.30;0.60;;;23.60;96.50;;;;;;5026175;28;20210;-70
2023/09/03 11:26:29;;;;;;;1.02;0.93;;;23.60;95.90;;;;;;5031393;28;20201;-70
2023/09/03 11:28:56;;;;;;;0.90;0.80;;;23.60;95.80;;;;;;5026151;28;20207;-70
2023/09/03 11:31:24;;;;;;;1.25;1.08;;;23.60;95.80;;;;;;5031347;28;20198;-71
2023/09/03 11:33:55;;;;;;;1.10;1.08;;;23.70;95.50;;;;;;5030208;28;20223;-70
2023/09/03 11:36:25;;;;;;;2.15;1.30;;;23.60;95.20;;;;;;5030298;28;20198;-70
2023/09/03 11:38:54;;;;;;;1.00;0.98;;;23.60;95.20;;;;;;5030810;28;20226;-70
2023/09/03 11:41:22;;;;;;;1.00;1.00;;;23.60;95.10;;;;;;5031312;28;20194;-70
2023/09/03 11:43:49;;;;;;;1.10;1.00;;;23.60;95.00;;;;;;5029272;28;20210;-70
2023/09/03 11:46:18;;;;;;;2.08;1.30;;;23.60;94.70;;;;;;5011551;28;20206;-70
2023/09/03 11:48:50;;;;;;;1.50;1.40;;;23.50;94.40;;;;;;5012611;28;20651;-70
2023/09/03 11:51:26;;;;;;;1.40;1.30;;;23.50;94.30;;;;;;5021196;28;20199;-70
2023/09/03 11:53:53;;;;;;;1.05;1.05;;;23.40;94.40;;;;;;5008604;28;20217;-70
2023/09/03 11:56:22;;;;;;;1.30;1.23;;;23.40;94.70;;;;;;5028920;28;20206;-70
2023/09/03 11:58:53;;;;;;;1.17;1.13;;;23.40;95.00;;;;;;5015124;28;20203;-70
2023/09/03 12:01:20;;;;;;;1.20;1.00;;;23.40;95.20;;;;;;5011360;28;20252;-70
2023/09/03 12:03:48;;;;;;;1.08;0.93;;;23.40;95.50;;;;;;5023119;28;20535;-69
2023/09/03 12:06:16;;;;;;;1.20;1.10;;;23.30;95.70;;;;;;5025953;28;20205;-69
2023/09/03 12:08:45;;;;;;;0.80;0.80;;;23.30;95.90;;;;;;5026022;28;20195;-70
2023/09/03 12:11:12;;;;;;;1.10;1.00;;;23.30;96.20;;;;;;5022308;28;20913;-70
2023/09/03 12:13:41;;;;;;;1.80;1.10;;;23.30;96.30;;;;;;5025551;28;20207;-70
2023/09/03 12:16:09;;;;;;;1.30;0.90;;;23.40;96.40;;;;;;5019013;28;20195;-69
2023/09/03 12:18:37;;;;;;;1.55;0.93;;;23.40;96.40;;;;;;5028200;28;20199;-70
2023/09/03 12:21:05;;;;;;;1.23;0.93;;;23.40;96.40;;;;;;5013924;28;20218;-70
2023/09/03 12:23:34;;;;;;;0.88;0.88;;;23.40;96.50;;;;;;5002110;28;20209;-70
2023/09/03 12:26:03;;;;;;;1.20;1.10;;;23.40;96.60;;;;;;5029651;28;20199;-70
2023/09/03 12:28:35;;;;;;;1.27;1.02;;;23.50;96.70;;;;;;5022804;28;20685;-71
2023/09/03 12:31:04;;;;;;;1.20;1.10;;;23.50;96.70;;;;;;5006723;28;20203;-71
2023/09/03 12:33:49;;;;;;;1.85;1.00;;;23.50;96.70;;;;;;5026293;28;20211;-69
2023/09/03 12:36:17;;;;;;;1.23;1.08;;;23.50;96.60;;;;;;5028200;28;20202;-69
2023/09/03 12:38:56;;;;;;;1.27;0.90;;;23.60;96.60;;;;;;5023101;28;20430;-69
2023/09/03 12:41:26;;;;;;;1.33;1.15;;;23.60;96.40;;;;;;5009138;28;20617;-69
2023/09/03 12:43:55;;;;;;;2.75;1.40;;;23.60;96.00;;;;;;5027953;28;20187;-69
2023/09/03 12:46:22;;;;;;;2.10;1.30;;;23.60;95.40;;;;;;5011128;28;20229;-70
2023/09/03 12:48:50;;;;;;;1.40;1.10;;;23.60;95.50;;;;;;5024380;28;20586;-69
2023/09/03 12:51:18;;;;;;;1.00;1.00;;;23.60;95.60;;;;;;5022334;28;20195;-70
2023/09/03 12:53:47;;;;;;;1.20;1.10;;;23.60;95.50;;;;;;5024038;28;20234;-70
2023/09/03 12:56:14;;;;;;;1.02;1.02;;;23.60;95.40;;;;;;5029099;28;20191;-70
2023/09/03 12:58:43;;;;;;;2.92;1.20;;;23.60;95.40;;;;;;5025071;28;20203;-70